createdAt,value
2023-09-07T00:01:05.927Z,20.60
2023-09-07T00:03:32.999Z,20.60
2023-09-07T00:05:59.951Z,20.50
2023-09-07T00:08:26.973Z,20.50
2023-09-07T00:10:53.869Z,20.50
2023-09-07T00:13:20.834Z,20.40
2023-09-07T00:15:47.725Z,20.40
2023-09-07T00:18:14.607Z,20.40
2023-09-07T00:20:41.710Z,20.40
2023-09-07T00:23:09.529Z,20.40
2023-09-07T00:25:36.479Z,20.30
2023-09-07T00:28:03.531Z,20.30
2023-09-07T00:30:30.471Z,20.30
2023-09-07T00:32:57.320Z,20.40
2023-09-07T00:35:24.155Z,20.40
2023-09-07T00:37:51.075Z,20.30
2023-09-07T00:40:18.000Z,20.30
2023-09-07T00:42:44.841Z,20.30
2023-09-07T00:45:11.786Z,20.30
2023-09-07T00:47:38.834Z,20.30
2023-09-07T00:50:07.026Z,20.30
2023-09-07T00:52:41.318Z,20.30
2023-09-07T00:55:09.161Z,20.30
2023-09-07T00:57:36.295Z,20.30
2023-09-07T01:00:08.848Z,20.30
2023-09-07T01:02:36.334Z,20.30
2023-09-07T01:05:06.492Z,20.30
2023-09-07T01:07:37.073Z,20.30
2023-09-07T01:10:04.574Z,20.30
2023-09-07T01:12:31.699Z,20.30
2023-09-07T01:14:59.608Z,20.30
2023-09-07T01:17:27.067Z,20.30
2023-09-07T01:19:54.306Z,20.30
2023-09-07T01:22:25.277Z,20.30
2023-09-07T01:24:53.533Z,20.30
2023-09-07T01:27:20.572Z,20.30
2023-09-07T01:29:48.270Z,20.20
2023-09-07T01:32:15.210Z,20.20
2023-09-07T01:34:42.407Z,20.20
2023-09-07T01:37:09.361Z,20.20
2023-09-07T01:39:36.657Z,20.10
2023-09-07T01:42:03.850Z,20.10
2023-09-07T01:44:31.252Z,20.10
2023-09-07T01:46:58.323Z,20.10
2023-09-07T01:49:25.771Z,20.10
2023-09-07T01:51:53.647Z,20.10
2023-09-07T01:54:22.396Z,20.10
2023-09-07T01:56:49.421Z,20.10
2023-09-07T01:59:16.410Z,20.10
2023-09-07T02:01:43.498Z,20.10
2023-09-07T02:04:10.417Z,20.00
2023-09-07T02:06:37.264Z,20.00
2023-09-07T02:09:05.465Z,20.00
2023-09-07T02:11:32.519Z,19.90
2023-09-07T02:13:59.490Z,20.00
2023-09-07T02:16:26.418Z,20.00
2023-09-07T02:19:01.703Z,20.00
2023-09-07T02:21:28.879Z,20.00
2023-09-07T02:23:55.782Z,19.90
2023-09-07T02:26:22.862Z,19.90
2023-09-07T02:28:50.041Z,19.90
2023-09-07T02:31:17.045Z,19.90
2023-09-07T02:33:44.365Z,19.90
2023-09-07T02:36:11.560Z,19.90
2023-09-07T02:38:38.534Z,19.90
2023-09-07T02:41:06.139Z,19.90
2023-09-07T02:43:33.400Z,19.90
2023-09-07T02:46:00.947Z,19.90
2023-09-07T02:48:28.088Z,19.80
2023-09-07T02:50:55.170Z,19.80
2023-09-07T02:53:24.447Z,19.70
2023-09-07T02:55:51.336Z,19.70
2023-09-07T02:58:19.121Z,19.70
2023-09-07T03:00:46.432Z,19.70
2023-09-07T03:03:15.845Z,19.70
2023-09-07T03:05:44.673Z,19.70
2023-09-07T03:08:11.795Z,19.70
2023-09-07T03:10:40.743Z,19.70
2023-09-07T03:13:08.793Z,19.70
2023-09-07T03:15:36.032Z,19.70
2023-09-07T03:18:06.003Z,19.60
2023-09-07T03:20:36.069Z,19.60
2023-09-07T03:23:04.973Z,19.60
2023-09-07T03:25:32.123Z,19.60
2023-09-07T03:27:59.118Z,19.60
2023-09-07T03:30:26.345Z,19.50
2023-09-07T03:32:54.801Z,19.50
2023-09-07T03:35:21.785Z,19.50
2023-09-07T03:37:48.649Z,19.50
2023-09-07T03:40:15.697Z,19.40
2023-09-07T03:42:44.528Z,19.40
2023-09-07T03:45:12.268Z,19.40
2023-09-07T03:47:39.635Z,19.40
2023-09-07T03:50:07.157Z,19.40
2023-09-07T03:52:34.722Z,19.40
2023-09-07T03:55:03.728Z,19.30
2023-09-07T03:57:31.160Z,19.30
2023-09-07T03:59:58.456Z,19.30
2023-09-07T04:02:25.899Z,19.30
2023-09-07T04:04:53.949Z,19.30
2023-09-07T04:07:21.143Z,19.30
2023-09-07T04:09:48.627Z,19.20
2023-09-07T04:12:16.017Z,19.20
2023-09-07T04:14:43.767Z,19.20
2023-09-07T04:17:10.974Z,19.20
2023-09-07T04:19:37.888Z,19.20
2023-09-07T04:22:04.873Z,19.20
2023-09-07T04:24:31.912Z,19.20
2023-09-07T04:27:00.213Z,19.10
2023-09-07T04:29:27.098Z,19.10
2023-09-07T04:31:54.157Z,19.10
2023-09-07T04:34:22.426Z,19.10
2023-09-07T04:36:50.059Z,19.20
2023-09-07T04:39:17.388Z,19.10
2023-09-07T04:41:44.289Z,19.10
2023-09-07T04:44:11.622Z,19.10
2023-09-07T04:46:38.763Z,19.10
2023-09-07T04:49:06.024Z,19.10
2023-09-07T04:51:32.981Z,19.10
2023-09-07T04:54:00.176Z,19.10
2023-09-07T04:56:29.181Z,19.20
2023-09-07T04:58:56.455Z,19.20
2023-09-07T05:01:23.424Z,19.10
2023-09-07T05:03:52.479Z,19.20
2023-09-07T05:06:19.579Z,19.20
2023-09-07T05:08:46.534Z,19.20
2023-09-07T05:11:13.578Z,19.20
2023-09-07T05:13:40.813Z,19.30
2023-09-07T05:16:09.084Z,19.30
2023-09-07T05:18:37.267Z,19.30
2023-09-07T05:21:15.882Z,19.40
2023-09-07T05:23:43.516Z,19.40
2023-09-07T05:26:10.493Z,19.50
2023-09-07T05:28:37.410Z,19.60
2023-09-07T05:31:05.055Z,20.40
2023-09-07T05:33:33.588Z,21.30
2023-09-07T05:36:00.576Z,22.20
2023-09-07T05:38:28.400Z,22.90
2023-09-07T05:40:56.860Z,23.20
2023-09-07T05:43:24.863Z,23.40
2023-09-07T05:45:51.846Z,23.60
2023-09-07T05:48:19.066Z,24.10
2023-09-07T05:50:47.106Z,24.70
2023-09-07T05:53:14.237Z,25.40
2023-09-07T05:55:42.041Z,26.10
2023-09-07T05:58:10.071Z,26.70
2023-09-07T06:00:42.069Z,27.40
2023-09-07T06:03:09.206Z,27.90
2023-09-07T06:05:37.520Z,28.40
2023-09-07T06:08:05.643Z,28.90
2023-09-07T06:10:32.646Z,29.30
2023-09-07T06:13:01.585Z,29.70
2023-09-07T06:15:30.653Z,30.20
2023-09-07T06:17:57.735Z,30.70
2023-09-07T06:20:24.857Z,31.10
2023-09-07T06:22:52.606Z,31.50
2023-09-07T06:25:19.878Z,32.00
2023-09-07T06:27:47.244Z,32.30
2023-09-07T06:30:14.192Z,32.70
2023-09-07T06:32:42.607Z,33.00
2023-09-07T06:35:11.537Z,33.30
2023-09-07T06:37:41.590Z,33.60
2023-09-07T06:40:10.476Z,33.80
2023-09-07T06:42:38.161Z,34.10
2023-09-07T06:45:10.864Z,34.50
2023-09-07T06:47:38.154Z,34.80
2023-09-07T06:50:06.185Z,35.10
2023-09-07T06:52:33.337Z,35.40
2023-09-07T06:55:00.530Z,35.70
2023-09-07T06:57:27.679Z,36.00
2023-09-07T06:59:55.018Z,36.30
2023-09-07T07:02:22.002Z,36.50
2023-09-07T07:04:48.991Z,36.70
2023-09-07T07:07:16.810Z,37.00
2023-09-07T07:09:43.981Z,37.40
2023-09-07T07:12:10.915Z,37.80
2023-09-07T07:14:39.191Z,38.10
2023-09-07T07:17:06.675Z,38.40
2023-09-07T07:19:35.401Z,38.70
2023-09-07T07:22:04.214Z,39.00
2023-09-07T07:24:32.420Z,39.30
2023-09-07T07:26:59.822Z,39.60
2023-09-07T07:29:30.527Z,39.90
2023-09-07T07:31:58.748Z,40.10
2023-09-07T07:34:25.695Z,40.30
2023-09-07T07:36:52.936Z,40.30
2023-09-07T07:39:21.859Z,40.70
2023-09-07T07:41:48.926Z,41.10
2023-09-07T07:44:15.920Z,41.30
2023-09-07T07:46:43.112Z,41.20
2023-09-07T07:49:10.583Z,41.20
2023-09-07T07:51:38.103Z,40.90
2023-09-07T07:54:05.147Z,40.50
2023-09-07T07:56:33.877Z,40.30
2023-09-07T07:59:02.042Z,40.50
2023-09-07T08:01:30.774Z,40.80
2023-09-07T08:04:01.252Z,40.80
2023-09-07T08:06:31.193Z,39.90
2023-09-07T08:08:58.260Z,39.40
2023-09-07T08:11:26.838Z,38.70
2023-09-07T08:13:54.100Z,38.60
2023-09-07T08:16:21.245Z,38.90
2023-09-07T08:18:48.464Z,38.80
2023-09-07T08:21:16.824Z,38.70
2023-09-07T08:23:44.115Z,38.50
2023-09-07T08:26:11.635Z,38.50
2023-09-07T08:28:40.358Z,38.50
2023-09-07T08:31:07.331Z,38.80
2023-09-07T08:33:41.377Z,39.00
2023-09-07T08:36:09.821Z,39.40
2023-09-07T08:38:36.788Z,40.00
2023-09-07T08:41:07.081Z,40.60
2023-09-07T08:43:35.543Z,41.10
2023-09-07T08:46:28.738Z,40.80
2023-09-07T08:48:57.163Z,40.30
2023-09-07T08:51:29.213Z,40.20
2023-09-07T08:53:57.479Z,40.10
2023-09-07T08:56:25.329Z,40.30
2023-09-07T08:58:52.271Z,40.60
2023-09-07T09:01:20.017Z,41.30
2023-09-07T09:03:47.396Z,41.80
2023-09-07T09:06:15.410Z,41.50
2023-09-07T09:08:43.031Z,40.60
2023-09-07T09:11:10.347Z,39.80
2023-09-07T09:13:38.290Z,39.50
2023-09-07T09:16:05.368Z,39.70
2023-09-07T09:18:32.653Z,39.90
2023-09-07T09:21:02.395Z,40.50
2023-09-07T09:23:35.676Z,40.50
2023-09-07T09:26:04.614Z,40.00
2023-09-07T09:28:33.160Z,39.90
2023-09-07T09:31:00.666Z,39.50
2023-09-07T09:33:29.128Z,39.40
2023-09-07T09:35:56.402Z,39.40
2023-09-07T09:38:23.334Z,39.70
2023-09-07T09:40:50.360Z,39.70
2023-09-07T09:43:17.404Z,39.60
2023-09-07T09:45:44.345Z,39.30
2023-09-07T09:48:12.131Z,39.20
2023-09-07T09:50:39.929Z,39.40
2023-09-07T09:53:10.511Z,39.60
2023-09-07T09:55:37.739Z,40.00
2023-09-07T09:58:04.931Z,40.20
2023-09-07T10:00:32.505Z,40.30
2023-09-07T10:03:00.366Z,40.50
2023-09-07T10:05:27.977Z,40.90
2023-09-07T10:08:00.847Z,41.80
2023-09-07T10:10:32.591Z,42.30
2023-09-07T10:12:59.465Z,42.10
2023-09-07T10:15:27.267Z,41.70
2023-09-07T10:18:06.377Z,42.00
2023-09-07T10:20:47.888Z,42.30
2023-09-07T10:23:14.839Z,41.90
2023-09-07T10:25:42.054Z,41.50
2023-09-07T10:28:18.962Z,41.10
2023-09-07T10:30:46.432Z,40.70
2023-09-07T10:33:22.766Z,40.60
2023-09-07T10:35:49.839Z,40.90
2023-09-07T10:38:16.820Z,41.30
2023-09-07T10:40:46.899Z,41.40
2023-09-07T10:43:13.856Z,41.40
2023-09-07T10:45:41.156Z,41.30
2023-09-07T10:48:09.305Z,41.50
2023-09-07T10:50:45.809Z,41.30
2023-09-07T10:53:13.205Z,41.30
2023-09-07T10:55:41.138Z,41.10
2023-09-07T10:58:09.844Z,40.80
2023-09-07T11:00:36.786Z,40.90
2023-09-07T11:03:10.892Z,41.40
2023-09-07T11:05:38.317Z,41.50
2023-09-07T11:08:06.417Z,41.60
2023-09-07T11:10:34.267Z,41.70
2023-09-07T11:13:05.567Z,41.80
2023-09-07T11:15:33.324Z,41.50
2023-09-07T11:18:05.538Z,41.40
2023-09-07T11:20:32.866Z,41.40
2023-09-07T11:23:05.431Z,41.70
2023-09-07T11:25:39.269Z,41.80
2023-09-07T11:28:06.732Z,41.80
2023-09-07T11:30:34.139Z,41.80
2023-09-07T11:33:07.674Z,41.20
2023-09-07T11:35:35.177Z,41.20
2023-09-07T11:38:06.663Z,41.50
2023-09-07T11:40:33.484Z,41.60
2023-09-07T11:43:00.294Z,42.10
2023-09-07T11:45:27.908Z,42.80
2023-09-07T11:47:54.947Z,43.20
2023-09-07T11:50:24.210Z,42.90
2023-09-07T11:52:51.276Z,42.50
2023-09-07T11:55:18.192Z,41.90
2023-09-07T11:57:45.908Z,42.00
2023-09-07T12:00:12.931Z,41.90
2023-09-07T12:02:40.350Z,41.90
2023-09-07T12:05:09.230Z,42.20
2023-09-07T12:07:36.840Z,42.30
2023-09-07T12:10:04.242Z,41.90
2023-09-07T12:12:31.105Z,41.10
2023-09-07T12:14:57.923Z,41.10
2023-09-07T12:17:24.973Z,41.30
2023-09-07T12:19:51.900Z,41.20
2023-09-07T12:22:19.498Z,41.50
2023-09-07T12:24:47.737Z,41.90
2023-09-07T12:27:16.730Z,42.70
2023-09-07T12:29:43.647Z,43.10
2023-09-07T12:32:10.658Z,43.10
2023-09-07T12:34:37.562Z,43.10
2023-09-07T12:37:05.574Z,43.40
2023-09-07T12:39:33.053Z,43.10
2023-09-07T12:41:59.997Z,42.40
2023-09-07T12:44:26.838Z,42.10
2023-09-07T12:46:53.677Z,42.00
2023-09-07T12:49:20.579Z,41.90
2023-09-07T12:51:48.343Z,42.40
2023-09-07T12:54:15.756Z,42.90
2023-09-07T12:56:42.654Z,42.30
2023-09-07T12:59:09.532Z,41.40
2023-09-07T13:01:38.624Z,40.80
2023-09-07T13:04:05.591Z,40.50
2023-09-07T13:06:32.442Z,40.30
2023-09-07T13:08:59.426Z,40.30
2023-09-07T13:11:26.331Z,40.40
2023-09-07T13:13:53.886Z,40.40
2023-09-07T13:16:20.757Z,40.50
2023-09-07T13:18:47.654Z,40.80
2023-09-07T13:21:14.499Z,40.80
2023-09-07T13:23:42.547Z,40.80
2023-09-07T13:26:09.466Z,40.50
2023-09-07T13:28:36.311Z,40.30
2023-09-07T13:31:03.860Z,40.40
2023-09-07T13:33:31.387Z,40.60
2023-09-07T13:35:58.548Z,40.50
2023-09-07T13:38:25.444Z,40.10
2023-09-07T13:40:52.308Z,39.90
2023-09-07T13:43:19.266Z,39.50
2023-09-07T13:45:46.150Z,39.30
2023-09-07T13:48:13.112Z,39.30
2023-09-07T13:50:40.063Z,39.60
2023-09-07T13:53:06.979Z,40.10
2023-09-07T13:55:33.849Z,40.20
2023-09-07T13:58:00.749Z,40.10
2023-09-07T14:00:28.793Z,40.10
2023-09-07T14:02:55.824Z,39.80
2023-09-07T14:05:22.720Z,39.00
2023-09-07T14:07:49.560Z,38.40
2023-09-07T14:10:16.452Z,37.90
2023-09-07T14:12:45.325Z,37.60
2023-09-07T14:15:12.233Z,37.30
2023-09-07T14:17:39.082Z,37.20
2023-09-07T14:20:06.284Z,37.00
2023-09-07T14:22:33.103Z,36.80
2023-09-07T14:24:59.912Z,36.50
2023-09-07T14:27:27.349Z,36.50
2023-09-07T14:29:54.276Z,36.40
2023-09-07T14:32:21.150Z,36.20
2023-09-07T14:34:48.008Z,35.70
2023-09-07T14:37:14.869Z,35.30
2023-09-07T14:39:48.106Z,34.80
2023-09-07T14:42:17.756Z,34.50
2023-09-07T14:44:45.431Z,34.40
2023-09-07T14:47:12.411Z,34.30
2023-09-07T14:49:39.305Z,34.50
2023-09-07T14:52:06.461Z,34.60
2023-09-07T14:54:33.416Z,34.30
2023-09-07T14:57:00.236Z,34.00
2023-09-07T14:59:27.136Z,33.90
2023-09-07T15:02:01.816Z,33.90
2023-09-07T15:04:30.656Z,33.80
2023-09-07T15:06:57.536Z,33.70
2023-09-07T15:09:24.438Z,33.70
2023-09-07T15:11:51.385Z,33.80
2023-09-07T15:14:18.282Z,33.60
2023-09-07T15:16:45.202Z,33.50
2023-09-07T15:19:12.084Z,33.50
2023-09-07T15:21:38.918Z,33.40
2023-09-07T15:24:06.057Z,33.30
2023-09-07T15:26:45.671Z,33.30
2023-09-07T15:29:12.965Z,33.20
2023-09-07T15:31:42.396Z,33.00
2023-09-07T15:34:09.952Z,32.70
2023-09-07T15:36:36.788Z,32.40
2023-09-07T15:39:04.339Z,32.00
2023-09-07T15:41:31.358Z,31.60
2023-09-07T15:43:58.344Z,31.30
2023-09-07T15:46:25.870Z,31.00
2023-09-07T15:48:53.505Z,31.00
2023-09-07T15:51:20.321Z,30.90
2023-09-07T15:53:47.135Z,30.80
2023-09-07T15:56:15.157Z,30.70
2023-09-07T15:58:41.979Z,30.50
2023-09-07T16:01:08.876Z,30.40
2023-09-07T16:03:35.841Z,30.30
2023-09-07T16:06:03.098Z,30.20
2023-09-07T16:08:30.518Z,30.10
2023-09-07T16:10:59.542Z,30.10
2023-09-07T16:13:26.980Z,30.00
2023-09-07T16:15:53.837Z,29.80
2023-09-07T16:18:21.341Z,29.60
2023-09-07T16:20:50.261Z,29.40
2023-09-07T16:23:17.313Z,29.20
2023-09-07T16:25:44.277Z,29.00
2023-09-07T16:28:11.311Z,28.90
2023-09-07T16:30:38.179Z,28.80
2023-09-07T16:33:05.214Z,28.70
2023-09-07T16:35:32.311Z,28.60
2023-09-07T16:37:59.139Z,28.50
2023-09-07T16:40:26.048Z,28.50
2023-09-07T16:42:53.726Z,28.40
2023-09-07T16:45:20.653Z,28.40
2023-09-07T16:47:47.525Z,28.30
2023-09-07T16:50:14.685Z,28.30
2023-09-07T16:52:42.449Z,28.20
2023-09-07T16:55:09.780Z,28.20
2023-09-07T16:57:36.735Z,28.10
2023-09-07T17:00:04.837Z,28.00
2023-09-07T17:02:32.218Z,27.90
2023-09-07T17:04:59.128Z,27.80
2023-09-07T17:07:25.992Z,27.70
2023-09-07T17:09:52.864Z,27.70
2023-09-07T17:12:20.274Z,27.60
2023-09-07T17:14:48.907Z,27.60
2023-09-07T17:17:16.336Z,27.50
2023-09-07T17:19:43.296Z,27.40
2023-09-07T17:22:10.157Z,27.30
2023-09-07T17:24:37.132Z,27.20
2023-09-07T17:27:04.629Z,27.10
2023-09-07T17:29:32.057Z,27.10
2023-09-07T17:31:59.047Z,27.00
2023-09-07T17:34:25.998Z,26.90
2023-09-07T17:36:52.892Z,26.80
2023-09-07T17:39:19.833Z,26.70
2023-09-07T17:41:46.667Z,26.60
2023-09-07T17:44:13.585Z,26.50
2023-09-07T17:46:41.035Z,26.40
2023-09-07T17:49:08.529Z,26.20
2023-09-07T17:51:35.413Z,26.00
2023-09-07T17:54:02.330Z,25.90
2023-09-07T17:56:29.257Z,25.80
2023-09-07T17:58:56.082Z,25.70
2023-09-07T18:01:22.998Z,25.60
2023-09-07T18:03:50.163Z,25.50
2023-09-07T18:06:17.145Z,25.40
2023-09-07T18:08:44.112Z,25.30
2023-09-07T18:11:11.098Z,25.30
2023-09-07T18:13:38.096Z,25.20
2023-09-07T18:16:05.146Z,25.10
2023-09-07T18:18:32.900Z,25.00
2023-09-07T18:21:06.850Z,25.00
2023-09-07T18:23:33.861Z,25.00
2023-09-07T18:26:00.756Z,24.90
2023-09-07T18:28:27.949Z,24.80
2023-09-07T18:30:54.900Z,24.70
2023-09-07T18:33:22.072Z,24.60
2023-09-07T18:35:59.189Z,24.60
2023-09-07T18:38:26.095Z,24.50
2023-09-07T18:40:53.256Z,24.50
2023-09-07T18:43:20.231Z,24.30
2023-09-07T18:45:47.253Z,24.30
2023-09-07T18:48:14.290Z,24.30
2023-09-07T18:50:41.564Z,24.20
2023-09-07T18:53:08.617Z,24.10
2023-09-07T18:55:36.084Z,24.10
2023-09-07T18:58:02.953Z,24.00
2023-09-07T19:00:29.998Z,24.00
2023-09-07T19:02:56.904Z,23.90
2023-09-07T19:05:23.985Z,23.90
2023-09-07T19:07:52.362Z,23.90
2023-09-07T19:10:19.388Z,23.80
2023-09-07T19:12:46.569Z,23.70
2023-09-07T19:15:15.058Z,23.70
2023-09-07T19:17:41.961Z,23.60
2023-09-07T19:20:09.695Z,23.60
2023-09-07T19:22:36.929Z,23.50
2023-09-07T19:25:04.118Z,23.50
2023-09-07T19:27:31.503Z,23.40
2023-09-07T19:30:00.791Z,23.40
2023-09-07T19:32:27.693Z,23.40
2023-09-07T19:34:54.610Z,23.30
2023-09-07T19:37:22.150Z,23.30
2023-09-07T19:39:48.962Z,23.20
2023-09-07T19:42:15.878Z,23.20
2023-09-07T19:44:42.787Z,23.20
2023-09-07T19:47:10.901Z,23.10
2023-09-07T19:49:37.801Z,23.10
2023-09-07T19:52:04.852Z,23.00
2023-09-07T19:54:31.770Z,23.00
2023-09-07T19:56:58.730Z,23.00
2023-09-07T19:59:25.605Z,22.90
2023-09-07T20:01:53.998Z,22.90
2023-09-07T20:04:21.326Z,22.80
2023-09-07T20:06:48.307Z,22.80
2023-09-07T20:09:18.495Z,22.80
2023-09-07T20:11:46.047Z,22.70
2023-09-07T20:14:13.134Z,22.70
2023-09-07T20:16:40.150Z,22.70
2023-09-07T20:19:08.131Z,22.70
2023-09-07T20:21:35.105Z,22.70
2023-09-07T20:24:01.968Z,22.70
2023-09-07T20:26:31.566Z,22.70
2023-09-07T20:28:58.449Z,22.60
2023-09-07T20:31:25.349Z,22.60
2023-09-07T20:33:52.361Z,22.60
2023-09-07T20:36:19.320Z,22.60
2023-09-07T20:38:46.390Z,22.50
2023-09-07T20:41:14.732Z,22.50
2023-09-07T20:43:41.926Z,22.50
2023-09-07T20:46:08.926Z,22.50
2023-09-07T20:48:36.197Z,22.50
2023-09-07T20:51:05.714Z,22.50
2023-09-07T20:53:33.539Z,22.50
2023-09-07T20:56:00.644Z,22.50
2023-09-07T20:58:27.711Z,22.40
2023-09-07T21:00:56.295Z,22.40
2023-09-07T21:03:23.479Z,22.40
2023-09-07T21:05:51.486Z,22.40
2023-09-07T21:08:18.509Z,22.30
2023-09-07T21:10:46.006Z,22.30
2023-09-07T21:13:13.728Z,22.30
2023-09-07T21:15:40.810Z,22.20
2023-09-07T21:18:07.999Z,22.20
2023-09-07T21:20:36.515Z,22.20
2023-09-07T21:23:04.285Z,22.20
2023-09-07T21:25:31.882Z,22.20
2023-09-07T21:27:58.979Z,22.20
2023-09-07T21:30:26.044Z,22.10
2023-09-07T21:32:53.004Z,22.10
2023-09-07T21:35:20.033Z,22.10
2023-09-07T21:37:46.984Z,22.10
2023-09-07T21:40:13.937Z,22.10
2023-09-07T21:42:40.933Z,22.10
2023-09-07T21:45:07.862Z,22.00
2023-09-07T21:47:35.381Z,22.00
2023-09-07T21:50:03.875Z,22.00
2023-09-07T21:52:30.734Z,22.00
2023-09-07T21:54:58.243Z,21.90
2023-09-07T21:57:25.454Z,22.00
2023-09-07T21:59:52.939Z,22.00
2023-09-07T22:02:20.477Z,21.90
2023-09-07T22:04:49.719Z,21.80
2023-09-07T22:07:16.635Z,21.90
2023-09-07T22:09:43.506Z,21.90
2023-09-07T22:12:10.348Z,21.80
2023-09-07T22:14:37.304Z,21.80
2023-09-07T22:17:04.510Z,21.90
2023-09-07T22:19:32.719Z,21.80
2023-09-07T22:21:59.564Z,21.80
2023-09-07T22:24:26.462Z,21.80
2023-09-07T22:26:55.947Z,21.80
2023-09-07T22:29:24.866Z,21.70
2023-09-07T22:31:51.801Z,21.70
2023-09-07T22:34:18.701Z,21.70
2023-09-07T22:36:45.580Z,21.60
2023-09-07T22:39:12.568Z,21.60
2023-09-07T22:41:39.450Z,21.60
2023-09-07T22:44:06.454Z,21.60
2023-09-07T22:46:34.213Z,21.60
2023-09-07T22:49:01.658Z,21.60
2023-09-07T22:51:28.833Z,21.60
2023-09-07T22:53:55.852Z,21.50
2023-09-07T22:56:22.751Z,21.50
2023-09-07T22:58:49.728Z,21.50
2023-09-07T23:01:16.690Z,21.50
2023-09-07T23:03:43.987Z,21.50
2023-09-07T23:06:11.767Z,21.50
2023-09-07T23:08:38.781Z,21.40
2023-09-07T23:11:05.832Z,21.40
2023-09-07T23:13:35.968Z,21.30
2023-09-07T23:16:04.108Z,21.30
2023-09-07T23:18:33.545Z,21.30
2023-09-07T23:21:00.738Z,21.30
2023-09-07T23:23:27.613Z,21.30
2023-09-07T23:25:55.912Z,21.20
2023-09-07T23:28:24.774Z,21.20
2023-09-07T23:30:52.090Z,21.20
2023-09-07T23:33:19.022Z,21.20
2023-09-07T23:35:45.945Z,21.20
2023-09-07T23:38:12.808Z,21.10
2023-09-07T23:40:39.794Z,21.10
2023-09-07T23:43:06.801Z,21.10
2023-09-07T23:45:33.684Z,21.10
2023-09-07T23:48:00.602Z,21.00
2023-09-07T23:50:28.314Z,21.00
2023-09-07T23:52:55.194Z,21.00
2023-09-07T23:55:22.179Z,21.00
2023-09-07T23:57:49.444Z,20.90
